Time;durP1;ratioP1;P1;durP2;ratioP2;P2;SDS_P1;SDS_P2;PMS_P1;PMS_P2;Temp;Humidity;BMP_temperature;BMP_pressure;BME280_temperature;BME280_humidity;BME280_pressure;Samples;Min_cycle;Max_cycle;Signal;HPM_P1;HPM_P2
2023/04/11 00:01:59;;;;;;;22.35;5.97;;;10.70;99.90;;;;;;5032334;28;20112;-72
2023/04/11 00:04:25;;;;;;;23.85;5.20;;;10.80;99.90;;;;;;5033046;28;20033;-72
2023/04/11 00:06:50;;;;;;;25.23;4.60;;;10.90;99.90;;;;;;5033600;28;20113;-73
2023/04/11 00:09:16;;;;;;;20.15;6.05;;;10.90;99.90;;;;;;5034346;28;20028;-72
2023/04/11 00:11:42;;;;;;;28.05;4.85;;;10.90;99.90;;;;;;5033785;28;20087;-72
2023/04/11 00:14:08;;;;;;;22.98;5.63;;;10.90;99.90;;;;;;5034264;28;20068;-73
2023/04/11 00:16:34;;;;;;;21.02;5.10;;;10.90;99.90;;;;;;5033500;28;20053;-72
2023/04/11 00:19:00;;;;;;;20.65;5.93;;;10.90;99.90;;;;;;5034711;28;20025;-72
2023/04/11 00:21:26;;;;;;;30.88;5.82;;;10.90;99.90;;;;;;5033541;28;20031;-72
2023/04/11 00:23:52;;;;;;;29.80;5.03;;;10.90;99.90;;;;;;5034430;28;20014;-72
2023/04/11 00:26:20;;;;;;;23.02;5.10;;;10.90;99.90;;;;;;5033388;28;20430;-72
2023/04/11 00:28:46;;;;;;;23.80;6.32;;;10.90;99.90;;;;;;5032528;28;20049;-72
2023/04/11 00:31:12;;;;;;;28.33;6.85;;;10.90;99.90;;;;;;5046267;28;20519;-73
2023/04/11 00:33:38;;;;;;;30.77;5.93;;;10.80;99.90;;;;;;5032092;28;20096;-72
2023/04/11 00:36:03;;;;;;;29.13;6.00;;;10.80;99.90;;;;;;5045244;28;20032;-72
2023/04/11 00:38:30;;;;;;;24.95;5.88;;;10.80;99.90;;;;;;5051602;28;20044;-72
2023/04/11 00:40:55;;;;;;;23.35;6.03;;;10.70;99.90;;;;;;5051116;28;20021;-72
2023/04/11 00:43:21;;;;;;;26.70;7.72;;;10.70;99.90;;;;;;5032391;28;20024;-72
2023/04/11 00:45:47;;;;;;;19.70;5.35;;;10.70;99.90;;;;;;5032198;28;20402;-72
2023/04/11 00:48:12;;;;;;;24.08;6.15;;;10.60;99.90;;;;;;5032650;28;20093;-72
2023/04/11 00:50:41;;;;;;;21.73;5.55;;;10.60;99.90;;;;;;5031256;28;20021;-72
2023/04/11 00:53:09;;;;;;;26.90;5.57;;;10.50;99.90;;;;;;5032251;28;20037;-72
2023/04/11 00:55:35;;;;;;;24.77;5.53;;;10.50;99.90;;;;;;5032522;28;20045;-72
2023/04/11 00:58:01;;;;;;;23.85;6.85;;;10.40;99.90;;;;;;5042823;28;20122;-72
2023/04/11 01:00:27;;;;;;;31.38;7.50;;;10.30;99.90;;;;;;5051052;28;20393;-72
2023/04/11 01:02:53;;;;;;;29.88;5.75;;;10.30;99.90;;;;;;5051450;28;20037;-72
2023/04/11 01:05:19;;;;;;;27.67;5.40;;;10.30;99.90;;;;;;5042247;28;20028;-72
2023/04/11 01:07:47;;;;;;;28.45;5.03;;;10.30;99.90;;;;;;5051160;28;20095;-73
2023/04/11 01:10:15;;;;;;;31.85;6.38;;;10.30;99.90;;;;;;5049572;28;20438;-72
2023/04/11 01:12:41;;;;;;;26.42;6.68;;;10.20;99.90;;;;;;5039826;28;20027;-72
2023/04/11 01:15:07;;;;;;;28.60;5.47;;;10.20;99.90;;;;;;5048586;28;20121;-72
2023/04/11 01:17:32;;;;;;;33.53;7.10;;;10.20;99.90;;;;;;5030340;28;20104;-72
2023/04/11 01:19:59;;;;;;;24.60;5.00;;;10.20;99.90;;;;;;5031857;28;20100;-72
2023/04/11 01:22:26;;;;;;;21.42;5.25;;;10.20;99.90;;;;;;5031526;28;20036;-72
2023/04/11 01:24:51;;;;;;;32.08;5.60;;;10.20;99.90;;;;;;5031836;28;20013;-72
2023/04/11 01:27:18;;;;;;;29.48;5.97;;;10.10;99.90;;;;;;5030622;28;20029;-72
2023/04/11 01:29:43;;;;;;;25.55;5.18;;;10.10;99.90;;;;;;5031461;28;20071;-72
2023/04/11 01:32:09;;;;;;;28.50;5.85;;;10.10;99.90;;;;;;5044412;28;20025;-72
2023/04/11 01:34:38;;;;;;;29.60;6.47;;;10.10;99.90;;;;;;5031620;28;20072;-72
2023/04/11 01:37:04;;;;;;;26.83;5.15;;;10.10;99.90;;;;;;5031776;28;20049;-72
2023/04/11 01:39:30;;;;;;;25.75;4.97;;;10.00;99.90;;;;;;5031362;28;20056;-72
2023/04/11 01:41:57;;;;;;;25.98;5.00;;;10.00;99.90;;;;;;5031176;28;20113;-72
2023/04/11 01:44:24;;;;;;;26.15;5.95;;;10.00;99.90;;;;;;5031351;28;20029;-72
2023/04/11 01:46:50;;;;;;;33.90;5.78;;;9.90;99.90;;;;;;5031113;28;20421;-72
2023/04/11 01:49:17;;;;;;;27.23;6.03;;;9.90;99.90;;;;;;5031149;28;20386;-72
2023/04/11 01:51:43;;;;;;;21.17;5.53;;;9.90;99.90;;;;;;5031187;28;20018;-72
2023/04/11 01:54:09;;;;;;;28.17;6.20;;;9.80;99.90;;;;;;5044367;28;20094;-72
2023/04/11 01:56:34;;;;;;;31.88;5.80;;;9.80;99.90;;;;;;5030414;28;20426;-72
2023/04/11 01:59:00;;;;;;;32.38;5.63;;;9.80;99.90;;;;;;5031225;28;20532;-72
2023/04/11 02:01:26;;;;;;;25.85;6.25;;;9.80;99.90;;;;;;5031021;28;20386;-72
2023/04/11 02:03:52;;;;;;;28.75;5.75;;;9.80;99.90;;;;;;5031164;28;20049;-72
2023/04/11 02:06:17;;;;;;;33.05;7.00;;;9.80;99.90;;;;;;5031025;28;20033;-72
2023/04/11 02:08:43;;;;;;;30.95;5.63;;;9.70;99.90;;;;;;5031106;28;20032;-73
2023/04/11 02:11:09;;;;;;;28.00;4.60;;;9.70;99.90;;;;;;5030564;28;20033;-72
2023/04/11 02:13:35;;;;;;;24.67;5.07;;;9.70;99.90;;;;;;5031201;28;20029;-72
2023/04/11 02:16:10;;;;;;;26.98;5.53;;;9.70;99.90;;;;;;5030566;28;20084;-72
2023/04/11 02:18:36;;;;;;;26.23;5.55;;;9.70;99.90;;;;;;5031317;28;20021;-72
2023/04/11 02:21:02;;;;;;;35.35;5.00;;;9.70;99.90;;;;;;5031363;28;20030;-72
2023/04/11 02:23:28;;;;;;;26.35;5.15;;;9.70;99.90;;;;;;5030403;28;20048;-72
2023/04/11 02:25:54;;;;;;;29.10;5.25;;;9.70;99.90;;;;;;5030917;28;20510;-72
2023/04/11 02:28:19;;;;;;;31.23;5.55;;;9.70;99.90;;;;;;5031358;28;20370;-72
2023/04/11 02:30:45;;;;;;;23.20;4.00;;;9.70;99.90;;;;;;5039929;28;20017;-72
2023/04/11 02:33:11;;;;;;;30.17;5.50;;;9.70;99.90;;;;;;5034630;28;20052;-72
2023/04/11 02:35:36;;;;;;;31.88;4.32;;;9.70;99.90;;;;;;5030343;28;20062;-73
2023/04/11 02:38:02;;;;;;;26.13;4.13;;;9.70;99.90;;;;;;5030295;28;20390;-72
2023/04/11 02:40:27;;;;;;;23.00;3.55;;;9.70;99.90;;;;;;5030140;28;20030;-73
2023/04/11 02:42:53;;;;;;;10.77;1.80;;;9.70;99.90;;;;;;5030744;28;20026;-73
2023/04/11 02:45:19;;;;;;;14.98;3.78;;;9.60;99.90;;;;;;5030675;28;20383;-73
2023/04/11 02:47:44;;;;;;;13.67;1.87;;;9.50;99.90;;;;;;5031121;28;20021;-73
2023/04/11 02:50:10;;;;;;;18.47;3.97;;;9.40;99.90;;;;;;5031122;28;20021;-72
2023/04/11 02:52:38;;;;;;;18.57;3.13;;;9.20;99.90;;;;;;5030990;28;20052;-72
2023/04/11 02:55:04;;;;;;;17.15;3.47;;;9.20;99.90;;;;;;5030938;28;20021;-72
2023/04/11 02:57:29;;;;;;;22.23;3.58;;;9.30;99.90;;;;;;5030894;28;20051;-72
2023/04/11 02:59:55;;;;;;;18.67;3.90;;;9.30;99.90;;;;;;5030817;28;20025;-71
2023/04/11 03:02:22;;;;;;;20.88;4.15;;;9.30;99.90;;;;;;5031243;28;20025;-71
2023/04/11 03:04:47;;;;;;;19.67;4.40;;;9.30;99.90;;;;;;5031033;28;20036;-71
2023/04/11 03:07:13;;;;;;;27.23;5.18;;;9.30;99.90;;;;;;5030250;28;20107;-71
2023/04/11 03:09:39;;;;;;;29.40;4.33;;;9.40;99.90;;;;;;5030654;28;20101;-71
2023/04/11 03:12:04;;;;;;;26.77;5.37;;;9.40;99.90;;;;;;5031884;28;20044;-71
2023/04/11 03:14:30;;;;;;;17.40;3.73;;;9.40;99.90;;;;;;5029161;28;20033;-71
2023/04/11 03:16:55;;;;;;;30.70;6.00;;;9.40;99.90;;;;;;5041367;28;20028;-71
2023/04/11 03:19:21;;;;;;;33.53;3.83;;;9.40;99.90;;;;;;5049642;28;20052;-71
2023/04/11 03:21:47;;;;;;;28.17;5.00;;;9.40;99.90;;;;;;5048484;28;20116;-71
2023/04/11 03:24:12;;;;;;;26.97;4.27;;;9.40;99.90;;;;;;5049367;28;20096;-71
2023/04/11 03:26:38;;;;;;;27.73;3.73;;;9.40;99.90;;;;;;5048560;28;20374;-71
2023/04/11 03:29:03;;;;;;;29.07;4.13;;;9.40;99.90;;;;;;5050003;28;20032;-71
2023/04/11 03:31:29;;;;;;;26.27;3.70;;;9.40;99.90;;;;;;5051269;28;20100;-71
2023/04/11 03:33:55;;;;;;;25.73;3.57;;;9.40;99.90;;;;;;5045620;28;20032;-72
2023/04/11 03:36:25;;;;;;;32.83;3.90;;;9.30;99.90;;;;;;5032823;28;20037;-72
2023/04/11 03:38:51;;;;;;;21.45;4.85;;;9.30;99.90;;;;;;5031350;28;20386;-71
2023/04/11 03:41:18;;;;;;;20.60;3.23;;;9.20;99.90;;;;;;5046481;28;20039;-71
2023/04/11 03:43:44;;;;;;;20.97;5.23;;;9.20;99.90;;;;;;5033508;28;20014;-71
2023/04/11 03:46:10;;;;;;;24.30;4.70;;;9.10;99.90;;;;;;5033739;28;20049;-71
2023/04/11 03:48:36;;;;;;;24.05;3.88;;;9.10;99.90;;;;;;5033616;28;20056;-71
2023/04/11 03:51:01;;;;;;;26.80;3.80;;;9.10;99.90;;;;;;5034053;28;20021;-71
2023/04/11 03:53:27;;;;;;;16.53;3.40;;;9.10;99.90;;;;;;5043889;28;20030;-71
2023/04/11 03:55:53;;;;;;;24.40;3.63;;;9.10;99.90;;;;;;5035921;28;20104;-71
2023/04/11 03:58:19;;;;;;;17.50;3.53;;;9.10;99.90;;;;;;5033096;28;20064;-71
2023/04/11 04:00:45;;;;;;;15.27;2.93;;;9.10;99.90;;;;;;5032200;28;20018;-71
2023/04/11 04:03:12;;;;;;;15.90;2.73;;;9.30;99.90;;;;;;5032977;28;20041;-71
2023/04/11 04:05:39;;;;;;;17.70;2.53;;;9.20;99.90;;;;;;5035260;28;20024;-71
2023/04/11 04:08:05;;;;;;;14.68;2.03;;;9.20;99.90;;;;;;5052818;28;20018;-72
2023/04/11 04:10:30;;;;;;;15.83;2.80;;;9.20;99.90;;;;;;5036619;28;20394;-71
2023/04/11 04:12:56;;;;;;;13.37;2.17;;;9.20;99.90;;;;;;5042497;28;20102;-71
2023/04/11 04:15:21;;;;;;;12.87;1.93;;;9.20;99.90;;;;;;5051885;28;20060;-71
2023/04/11 04:17:47;;;;;;;11.93;1.70;;;9.20;99.90;;;;;;5052149;28;20017;-71
2023/04/11 04:20:12;;;;;;;7.78;2.05;;;9.30;99.90;;;;;;5050922;28;20793;-71
2023/04/11 04:22:38;;;;;;;15.27;2.40;;;9.30;99.90;;;;;;5052104;28;20355;-71
2023/04/11 04:25:04;;;;;;;13.57;2.13;;;9.30;99.90;;;;;;5046217;28;20028;-71
2023/04/11 04:27:30;;;;;;;13.75;2.70;;;9.30;99.90;;;;;;5052150;28;20377;-72
2023/04/11 04:29:56;;;;;;;7.03;1.73;;;9.30;99.90;;;;;;5046933;28;20018;-71
2023/04/11 04:32:23;;;;;;;8.63;1.73;;;9.30;99.90;;;;;;5043110;28;20022;-71
2023/04/11 04:34:57;;;;;;;9.60;1.67;;;9.30;99.90;;;;;;5035419;28;20032;-72
2023/04/11 04:37:24;;;;;;;16.00;2.03;;;9.30;99.90;;;;;;5023649;28;20390;-71
2023/04/11 04:39:54;;;;;;;11.90;2.50;;;9.30;99.90;;;;;;5036136;28;20028;-71
2023/04/11 04:42:24;;;;;;;11.93;2.37;;;9.30;99.90;;;;;;5044167;28;20021;-71
2023/04/11 04:44:51;;;;;;;10.40;1.70;;;9.30;99.90;;;;;;5043916;28;20025;-71
2023/04/11 04:47:17;;;;;;;9.27;1.50;;;9.30;99.90;;;;;;5042728;28;20021;-71
2023/04/11 04:49:43;;;;;;;11.77;2.50;;;9.30;99.90;;;;;;5043140;28;20027;-71
2023/04/11 04:52:09;;;;;;;8.63;2.83;;;9.30;99.90;;;;;;5043062;28;20075;-72
2023/04/11 04:54:35;;;;;;;11.00;1.73;;;9.30;99.90;;;;;;5041971;28;20028;-71
2023/04/11 04:57:01;;;;;;;9.60;1.60;;;9.30;99.90;;;;;;5039962;28;20051;-71
2023/04/11 04:59:27;;;;;;;13.13;1.80;;;9.30;99.90;;;;;;5043873;28;20119;-71
2023/04/11 05:01:53;;;;;;;10.35;1.67;;;9.30;99.90;;;;;;5040264;28;20040;-71
2023/04/11 05:04:19;;;;;;;10.97;1.80;;;9.20;99.90;;;;;;5040893;28;20382;-71
2023/04/11 05:06:45;;;;;;;14.50;2.57;;;9.30;99.90;;;;;;5041935;28;20021;-71
2023/04/11 05:09:10;;;;;;;11.33;1.40;;;9.20;99.90;;;;;;5038755;28;20021;-71
2023/04/11 05:11:36;;;;;;;12.53;1.63;;;9.20;99.90;;;;;;5042291;28;20033;-71
2023/04/11 05:14:02;;;;;;;12.23;1.73;;;9.20;99.90;;;;;;5044158;28;20482;-71
2023/04/11 05:16:27;;;;;;;8.37;1.60;;;9.20;99.90;;;;;;5034525;28;20021;-71
2023/04/11 05:18:53;;;;;;;15.37;2.10;;;9.10;99.90;;;;;;5042649;28;20043;-70
2023/04/11 05:21:18;;;;;;;8.97;1.97;;;9.10;99.90;;;;;;5037563;28;20123;-71
2023/04/11 05:23:44;;;;;;;11.30;1.60;;;9.00;99.90;;;;;;5035824;28;20029;-71
2023/04/11 05:26:10;;;;;;;11.57;1.70;;;9.00;99.90;;;;;;5044459;28;20040;-71
2023/04/11 05:28:36;;;;;;;12.80;1.93;;;8.90;99.90;;;;;;5044622;28;20263;-71
2023/04/11 05:31:02;;;;;;;11.63;1.50;;;8.80;99.90;;;;;;5047798;28;20596;-71
2023/04/11 05:33:28;;;;;;;11.53;1.83;;;8.80;99.90;;;;;;5047070;28;20385;-71
2023/04/11 05:35:54;;;;;;;6.87;1.33;;;8.70;99.90;;;;;;5051107;28;20032;-71
2023/04/11 05:38:19;;;;;;;15.10;1.80;;;8.70;99.90;;;;;;5043095;28;20509;-71
2023/04/11 05:40:45;;;;;;;13.73;1.70;;;8.60;99.90;;;;;;5031460;28;20026;-71
2023/04/11 05:43:13;;;;;;;8.53;1.10;;;8.60;99.90;;;;;;5031937;28;20025;-71
2023/04/11 05:45:40;;;;;;;8.87;1.60;;;8.60;99.90;;;;;;5032843;28;20486;-72
2023/04/11 05:48:06;;;;;;;8.30;1.33;;;8.60;99.90;;;;;;5031925;28;20435;-71
2023/04/11 05:50:33;;;;;;;8.30;1.40;;;8.60;99.90;;;;;;5030743;28;20021;-71
2023/04/11 05:52:58;;;;;;;3.83;1.10;;;8.60;99.90;;;;;;5030541;28;20033;-71
2023/04/11 05:55:24;;;;;;;13.40;1.30;;;8.50;99.90;;;;;;5031552;28;20432;-71
2023/04/11 05:57:49;;;;;;;7.47;1.10;;;8.50;99.90;;;;;;5031763;28;20018;-71
2023/04/11 06:00:16;;;;;;;10.90;1.47;;;8.50;99.90;;;;;;5032049;28;20482;-71
2023/04/11 06:02:42;;;;;;;7.77;1.47;;;8.60;99.90;;;;;;5030860;28;20049;-71
2023/04/11 06:05:10;;;;;;;16.67;1.57;;;8.60;99.90;;;;;;5032336;28;20029;-71
2023/04/11 06:07:40;;;;;;;14.13;2.00;;;8.70;99.90;;;;;;5031714;28;20021;-72
2023/04/11 06:10:06;;;;;;;8.67;1.37;;;8.60;99.90;;;;;;5032737;28;20020;-72
2023/04/11 06:12:32;;;;;;;8.33;1.17;;;8.60;99.90;;;;;;5031674;28;20026;-72
2023/04/11 06:14:57;;;;;;;4.30;1.00;;;8.70;99.90;;;;;;5032270;28;20107;-72
2023/04/11 06:17:23;;;;;;;9.57;1.73;;;8.70;99.90;;;;;;5031312;28;20025;-72
2023/04/11 06:19:49;;;;;;;7.30;2.17;;;8.70;99.90;;;;;;5032982;28;20481;-72
2023/04/11 06:22:14;;;;;;;9.13;1.27;;;8.80;99.90;;;;;;5031433;28;20445;-72
2023/04/11 06:24:40;;;;;;;8.87;1.10;;;8.80;99.90;;;;;;5032442;28;20013;-71
2023/04/11 06:27:09;;;;;;;7.20;2.00;;;8.80;99.90;;;;;;5031806;28;20022;-71
2023/04/11 06:29:36;;;;;;;9.20;2.00;;;8.90;99.90;;;;;;5047033;28;20025;-72
2023/04/11 06:32:01;;;;;;;4.77;1.20;;;8.90;99.90;;;;;;5049912;28;20021;-72
2023/04/11 06:34:27;;;;;;;11.17;2.10;;;9.00;99.90;;;;;;5048758;28;20440;-72
2023/04/11 06:36:52;;;;;;;8.97;2.13;;;9.00;99.90;;;;;;5042592;28;20021;-72
2023/04/11 06:39:18;;;;;;;11.27;2.37;;;9.10;99.90;;;;;;5049997;28;20033;-72
2023/04/11 06:41:46;;;;;;;10.90;2.23;;;9.10;99.90;;;;;;5049214;28;20102;-72
2023/04/11 06:44:12;;;;;;;8.77;2.08;;;9.20;99.90;;;;;;5049639;28;20029;-72
2023/04/11 06:46:37;;;;;;;14.63;1.80;;;9.20;99.90;;;;;;5042859;28;20018;-72
2023/04/11 06:49:06;;;;;;;13.97;3.67;;;9.20;99.90;;;;;;5030541;28;20075;-72
2023/04/11 06:51:32;;;;;;;12.10;1.83;;;9.30;99.90;;;;;;5029924;28;20026;-72
2023/04/11 06:53:57;;;;;;;13.13;2.10;;;9.40;99.90;;;;;;5030143;28;20091;-72
2023/04/11 06:56:23;;;;;;;10.40;1.80;;;9.40;99.90;;;;;;5041740;28;20025;-72
2023/04/11 06:58:48;;;;;;;11.87;2.10;;;9.50;99.90;;;;;;5042595;28;20070;-72
2023/04/11 07:01:14;;;;;;;15.03;1.80;;;9.50;99.90;;;;;;5029123;28;20030;-72
2023/04/11 07:03:40;;;;;;;17.37;1.90;;;9.50;99.90;;;;;;5037087;28;20049;-72
2023/04/11 07:06:09;;;;;;;12.73;1.53;;;9.60;99.90;;;;;;5040490;28;20462;-72
2023/04/11 07:08:35;;;;;;;17.37;2.27;;;9.70;99.90;;;;;;5042107;28;20363;-72
2023/04/11 07:11:01;;;;;;;8.97;2.10;;;9.70;99.90;;;;;;5035423;28;20036;-72
2023/04/11 07:13:27;;;;;;;13.07;2.00;;;9.80;99.90;;;;;;5034580;28;20025;-72
2023/04/11 07:15:52;;;;;;;9.68;2.60;;;9.80;99.90;;;;;;5042454;28;20025;-72
2023/04/11 07:18:18;;;;;;;10.18;1.63;;;9.90;99.90;;;;;;5038926;28;20037;-72
2023/04/11 07:20:43;;;;;;;14.20;2.20;;;10.00;99.90;;;;;;5035189;28;20030;-72
2023/04/11 07:23:09;;;;;;;13.57;1.65;;;10.10;99.90;;;;;;5037425;28;20033;-72
2023/04/11 07:25:35;;;;;;;15.82;2.45;;;10.30;99.90;;;;;;5039019;28;20029;-72
2023/04/11 07:28:06;;;;;;;12.70;1.92;;;10.40;99.90;;;;;;5037853;28;20028;-72
2023/04/11 07:30:32;;;;;;;11.30;2.22;;;10.50;99.90;;;;;;5041621;28;20059;-72
2023/04/11 07:32:57;;;;;;;10.10;1.80;;;10.50;99.90;;;;;;5035847;28;20026;-72
2023/04/11 07:35:23;;;;;;;9.63;1.83;;;10.50;99.90;;;;;;5048152;28;20534;-72
2023/04/11 07:37:49;;;;;;;11.48;1.92;;;10.60;99.90;;;;;;5045852;28;20025;-72
2023/04/11 07:40:15;;;;;;;11.40;2.08;;;10.60;99.90;;;;;;5048976;28;20025;-72
2023/04/11 07:42:41;;;;;;;10.13;1.83;;;10.50;99.90;;;;;;5047655;28;20025;-73
2023/04/11 07:45:07;;;;;;;13.10;1.85;;;10.60;99.90;;;;;;5035655;28;20377;-73
2023/04/11 07:47:32;;;;;;;7.68;1.52;;;10.60;99.90;;;;;;5046418;28;20032;-71
2023/04/11 07:49:58;;;;;;;11.00;1.65;;;10.70;99.90;;;;;;5034760;28;20037;-72
2023/04/11 07:52:27;;;;;;;7.22;1.58;;;10.80;99.90;;;;;;5032478;28;20053;-71
2023/04/11 07:54:52;;;;;;;9.35;1.58;;;10.90;99.90;;;;;;5045235;28;20470;-71
2023/04/11 07:57:18;;;;;;;10.35;1.33;;;10.80;99.90;;;;;;5045613;28;20087;-71
2023/04/11 07:59:45;;;;;;;6.03;1.50;;;10.80;99.90;;;;;;5046781;28;20381;-73
2023/04/11 08:02:10;;;;;;;8.98;1.27;;;10.80;99.90;;;;;;5046186;28;20385;-72
2023/04/11 08:04:36;;;;;;;14.30;2.10;;;10.80;99.90;;;;;;5032304;28;20030;-72
2023/04/11 08:07:02;;;;;;;13.25;2.28;;;10.80;99.90;;;;;;5031353;28;20038;-73
2023/04/11 08:09:28;;;;;;;8.98;1.20;;;10.90;99.90;;;;;;5033500;28;20025;-71
2023/04/11 08:11:55;;;;;;;12.63;2.42;;;11.00;99.90;;;;;;5046796;28;20558;-71
2023/04/11 08:14:22;;;;;;;5.40;1.23;;;11.00;99.90;;;;;;5040227;28;20029;-71
2023/04/11 08:16:47;;;;;;;10.52;1.98;;;11.10;99.90;;;;;;5037369;28;20025;-71
2023/04/11 08:19:13;;;;;;;8.55;1.30;;;11.00;99.90;;;;;;5039157;28;20079;-71
2023/04/11 08:21:38;;;;;;;8.48;1.65;;;10.90;99.90;;;;;;5040377;28;20082;-71
2023/04/11 08:24:04;;;;;;;11.10;2.63;;;10.90;99.90;;;;;;5033131;28;20021;-71
2023/04/11 08:26:30;;;;;;;5.57;1.40;;;10.90;99.90;;;;;;5032261;28;20025;-71
2023/04/11 08:28:55;;;;;;;10.63;2.45;;;10.80;99.90;;;;;;5032887;28;20029;-71
2023/04/11 08:31:21;;;;;;;6.72;1.23;;;10.80;99.90;;;;;;5045794;28;20028;-72
2023/04/11 08:33:47;;;;;;;11.65;1.75;;;10.80;99.90;;;;;;5050554;28;20032;-72
2023/04/11 08:36:12;;;;;;;8.15;1.60;;;10.80;99.90;;;;;;5038829;28;20033;-72
2023/04/11 08:38:39;;;;;;;7.00;1.25;;;10.80;99.90;;;;;;5051852;28;20017;-72
2023/04/11 08:41:05;;;;;;;9.73;1.85;;;10.70;99.90;;;;;;5039891;28;20097;-72
2023/04/11 08:43:35;;;;;;;11.63;2.05;;;10.60;99.90;;;;;;5036503;28;20036;-74
2023/04/11 08:46:08;;;;;;;10.60;2.88;;;10.70;99.90;;;;;;5041897;28;20108;-73
2023/04/11 08:48:34;;;;;;;9.10;1.15;;;10.80;99.90;;;;;;5027742;28;20096;-73
2023/04/11 08:51:01;;;;;;;8.35;1.65;;;10.90;99.90;;;;;;5030182;28;20115;-73
2023/04/11 08:53:28;;;;;;;5.60;1.73;;;11.10;99.90;;;;;;5025465;28;20137;-73
2023/04/11 08:55:53;;;;;;;14.05;1.60;;;11.20;99.90;;;;;;5042530;28;20068;-71
2023/04/11 08:58:19;;;;;;;8.38;1.52;;;11.30;99.90;;;;;;5037697;28;20060;-71
2023/04/11 09:00:45;;;;;;;8.77;1.40;;;11.30;99.90;;;;;;5040734;28;20104;-72
2023/04/11 09:03:14;;;;;;;12.10;2.00;;;11.40;99.90;;;;;;5036888;28;20553;-72
2023/04/11 09:05:42;;;;;;;7.82;1.95;;;11.50;99.90;;;;;;5040290;28;20024;-71
2023/04/11 09:08:12;;;;;;;6.07;1.50;;;11.70;99.70;;;;;;5036267;28;20074;-72
2023/04/11 09:10:40;;;;;;;9.73;1.85;;;11.80;99.60;;;;;;5036625;28;20032;-71
2023/04/11 09:13:20;;;;;;;11.32;2.05;;;12.00;99.20;;;;;;5040226;28;20032;-72
2023/04/11 09:15:46;;;;;;;8.88;1.13;;;12.10;98.40;;;;;;5045995;28;20044;-72
2023/04/11 09:18:30;;;;;;;8.40;1.50;;;12.10;98.40;;;;;;5044090;28;20025;-71
2023/04/11 09:21:02;;;;;;;8.05;1.67;;;12.20;98.60;;;;;;5039774;28;20049;-71
2023/04/11 09:23:28;;;;;;;4.45;0.98;;;12.30;98.10;;;;;;5036634;28;20109;-72
2023/04/11 09:25:53;;;;;;;9.80;2.38;;;12.20;97.70;;;;;;5032511;28;20109;-72
2023/04/11 09:28:19;;;;;;;6.47;1.52;;;12.20;97.90;;;;;;5032480;28;20057;-72
2023/04/11 09:30:52;;;;;;;7.25;1.40;;;12.20;97.90;;;;;;5041323;28;20032;-72
2023/04/11 09:33:27;;;;;;;11.77;2.75;;;12.10;97.60;;;;;;5034516;28;20021;-72
2023/04/11 09:35:54;;;;;;;12.50;1.33;;;12.00;97.70;;;;;;5036585;28;20032;-72
2023/04/11 09:38:33;;;;;;;11.88;2.15;;;12.00;98.00;;;;;;5037202;28;20094;-72
2023/04/11 09:41:01;;;;;;;13.73;1.60;;;12.10;98.00;;;;;;5029483;28;20021;-71
2023/04/11 09:43:27;;;;;;;6.72;2.75;;;12.00;97.50;;;;;;5030611;28;20470;-71
2023/04/11 09:46:09;;;;;;;7.88;1.35;;;12.20;97.60;;;;;;5033787;28;20028;-72
2023/04/11 09:48:36;;;;;;;6.25;1.85;;;12.40;96.80;;;;;;5032133;28;20108;-71
2023/04/11 09:51:09;;;;;;;5.10;1.33;;;12.50;96.20;;;;;;5032190;28;20052;-72
2023/04/11 09:53:36;;;;;;;12.38;1.75;;;12.70;95.90;;;;;;5023251;28;20018;-72
2023/04/11 09:56:02;;;;;;;11.63;1.45;;;12.70;95.20;;;;;;5033129;28;20012;-72
2023/04/11 09:58:30;;;;;;;9.48;1.67;;;12.50;95.30;;;;;;5038669;28;20116;-72
2023/04/11 10:00:58;;;;;;;6.38;1.40;;;12.30;95.40;;;;;;5039372;28;20032;-72
2023/04/11 10:03:25;;;;;;;4.63;1.08;;;12.20;94.40;;;;;;5036118;28;20405;-72
2023/04/11 10:05:53;;;;;;;8.20;1.20;;;12.00;93.60;;;;;;5041766;28;20052;-72
2023/04/11 10:08:33;;;;;;;6.85;1.35;;;12.00;93.90;;;;;;5033035;28;20018;-73
2023/04/11 10:10:59;;;;;;;8.45;1.00;;;11.90;94.20;;;;;;5038410;28;20018;-72
2023/04/11 10:13:34;;;;;;;5.70;1.65;;;11.80;94.40;;;;;;5034964;28;20021;-73
2023/04/11 10:16:09;;;;;;;7.40;1.00;;;11.80;94.40;;;;;;5037541;28;20026;-72
2023/04/11 10:18:36;;;;;;;4.30;0.55;;;11.90;92.90;;;;;;5030199;28;20013;-72
2023/04/11 10:21:04;;;;;;;7.22;1.05;;;12.00;92.40;;;;;;5038570;28;20056;-73
2023/04/11 10:23:49;;;;;;;3.63;0.75;;;12.20;92.10;;;;;;5039698;28;20025;-73
2023/04/11 10:26:15;;;;;;;10.05;1.45;;;12.20;91.60;;;;;;5039068;28;20033;-72
2023/04/11 10:28:40;;;;;;;6.25;1.45;;;12.20;91.80;;;;;;5042461;28;20020;-73
2023/04/11 10:31:08;;;;;;;5.30;0.90;;;12.30;91.90;;;;;;5041817;28;20025;-73
2023/04/11 10:33:35;;;;;;;8.95;1.15;;;12.50;91.70;;;;;;5033618;28;20024;-73
2023/04/11 10:36:04;;;;;;;9.68;1.65;;;12.60;91.10;;;;;;5014365;28;20573;-73
2023/04/11 10:38:50;;;;;;;4.05;0.75;;;12.70;91.30;;;;;;5040783;28;20556;-73
2023/04/11 10:41:21;;;;;;;6.03;1.33;;;12.80;90.90;;;;;;5031500;28;20029;-73
2023/04/11 10:43:48;;;;;;;7.22;1.05;;;12.80;90.70;;;;;;5040777;28;20398;-73
2023/04/11 10:46:24;;;;;;;6.25;0.82;;;12.80;90.40;;;;;;5028543;28;20076;-71
2023/04/11 10:49:00;;;;;;;5.18;0.95;;;12.80;89.40;;;;;;5029953;28;20049;-73
2023/04/11 10:51:26;;;;;;;5.90;0.80;;;12.80;88.90;;;;;;5034248;28;20013;-73
2023/04/11 10:53:53;;;;;;;5.35;1.27;;;12.80;88.10;;;;;;5037748;28;20040;-71
2023/04/11 10:56:37;;;;;;;7.75;0.75;;;12.70;86.40;;;;;;5036579;28;20032;-71
2023/04/11 10:59:02;;;;;;;;;;;12.80;85.70;;;;;;5045161;28;20097;-71
2023/04/11 11:01:28;;;;;;;4.07;1.10;;;12.80;82.80;;;;;;5047972;28;19908;-71
2023/04/11 11:03:55;;;;;;;7.75;1.00;;;12.80;85.30;;;;;;5042116;28;20493;-71
2023/04/11 11:06:21;;;;;;;9.05;1.05;;;12.90;85.20;;;;;;5039457;28;20247;-72
2023/04/11 11:08:47;;;;;;;7.22;0.80;;;12.90;84.40;;;;;;5039138;28;20032;-73
2023/04/11 11:11:14;;;;;;;4.30;1.15;;;13.00;84.20;;;;;;5039920;28;20103;-73
2023/04/11 11:13:59;;;;;;;5.05;1.10;;;13.10;85.00;;;;;;5040543;28;20021;-73
2023/04/11 11:16:25;;;;;;;5.07;1.50;;;13.10;85.30;;;;;;5041912;28;20049;-72
2023/04/11 11:18:57;;;;;;;4.68;0.70;;;13.10;84.80;;;;;;5043039;28;20048;-72
2023/04/11 11:21:26;;;;;;;4.80;0.93;;;13.10;84.90;;;;;;5039573;28;20026;-73
2023/04/11 11:23:56;;;;;;;5.22;1.00;;;13.20;85.10;;;;;;5043748;28;20024;-72
2023/04/11 11:26:23;;;;;;;5.13;1.00;;;13.10;82.80;;;;;;5039842;28;20433;-72
2023/04/11 11:28:49;;;;;;;4.70;1.35;;;13.10;82.10;;;;;;5041538;28;20021;-73
2023/04/11 11:31:15;;;;;;;12.52;1.67;;;13.00;82.00;;;;;;5044431;28;20025;-72
2023/04/11 11:33:41;;;;;;;7.30;1.10;;;12.90;81.40;;;;;;5028615;28;20029;-72
2023/04/11 11:36:07;;;;;;;6.88;0.93;;;12.90;81.60;;;;;;5029239;28;20029;-72
2023/04/11 11:38:34;;;;;;;5.57;1.05;;;13.00;81.60;;;;;;5030482;28;20056;-72
2023/04/11 11:41:00;;;;;;;6.32;1.83;;;13.10;81.10;;;;;;5033190;28;20029;-72
2023/04/11 11:43:29;;;;;;;5.95;1.33;;;13.10;82.30;;;;;;5032572;28;20025;-72
2023/04/11 11:46:13;;;;;;;4.97;1.10;;;13.20;81.00;;;;;;5041653;28;20025;-72
2023/04/11 11:48:40;;;;;;;9.23;1.00;;;13.20;81.20;;;;;;5045372;28;20025;-72
2023/04/11 11:51:06;;;;;;;5.95;1.17;;;13.10;81.90;;;;;;5040983;28;20021;-72
2023/04/11 11:53:31;;;;;;;5.32;1.15;;;13.00;81.70;;;;;;5044016;28;20079;-73
2023/04/11 11:55:58;;;;;;;7.13;1.38;;;13.00;82.70;;;;;;5044249;28;20036;-73
2023/04/11 11:58:24;;;;;;;5.65;1.00;;;13.00;83.10;;;;;;5033303;28;20386;-73
2023/04/11 12:00:51;;;;;;;11.43;1.75;;;12.90;84.50;;;;;;5045779;28;20100;-72
2023/04/11 12:03:21;;;;;;;4.07;0.90;;;13.00;84.90;;;;;;5047724;28;20049;-72
2023/04/11 12:05:47;;;;;;;6.18;0.90;;;13.00;84.60;;;;;;5045348;28;20095;-72
2023/04/11 12:08:12;;;;;;;7.90;0.82;;;12.90;83.80;;;;;;5042666;28;20067;-72
2023/04/11 12:10:44;;;;;;;9.63;1.48;;;12.90;83.10;;;;;;5037106;28;20056;-73
2023/04/11 12:13:22;;;;;;;7.95;1.27;;;12.80;83.70;;;;;;5029992;28;20033;-72
2023/04/11 12:16:00;;;;;;;5.40;1.10;;;12.90;83.60;;;;;;5028566;28;20029;-72
2023/04/11 12:18:27;;;;;;;7.68;1.73;;;12.90;83.10;;;;;;5028119;28;20026;-73
2023/04/11 12:20:53;;;;;;;8.07;1.20;;;12.90;83.50;;;;;;5050640;28;20020;-72
2023/04/11 12:23:19;;;;;;;10.77;1.75;;;12.90;83.90;;;;;;5047895;28;20021;-72
2023/04/11 12:25:45;;;;;;;10.70;1.23;;;13.00;83.60;;;;;;5045137;28;20405;-73
2023/04/11 12:28:11;;;;;;;7.53;1.45;;;13.10;82.20;;;;;;5042336;28;20043;-72
2023/04/11 12:30:37;;;;;;;6.00;0.90;;;13.20;82.40;;;;;;5048361;28;20478;-73
2023/04/11 12:33:03;;;;;;;4.22;1.02;;;13.30;82.50;;;;;;5038096;28;20025;-73
2023/04/11 12:35:29;;;;;;;5.93;1.15;;;13.50;82.20;;;;;;5040176;28;20036;-72
2023/04/11 12:37:55;;;;;;;6.55;0.95;;;13.70;79.60;;;;;;5051756;28;20053;-72
2023/04/11 12:40:21;;;;;;;8.55;1.25;;;13.70;77.00;;;;;;5047358;28;20159;-72
2023/04/11 12:42:47;;;;;;;5.85;0.80;;;13.60;76.80;;;;;;5043149;28;20029;-73
2023/04/11 12:45:13;;;;;;;5.03;1.05;;;13.50;77.10;;;;;;5047451;28;20781;-72